Sebastian, FL (32958)

10:06 AM EST on December 29, 2014 (GMT -0500)
OZWORLD | Change Station
CLOSE
Current Station
Personal Weather Station
Location: Sebastian, FL
Elevation: 21 ft
Nearby Weather Stations
Active Advisory: Coastal Hazard Statement

Elev 21 ft 27.80 °N, 80.48 °W | Updated 2 seconds ago

Mostly Cloudy
Mostly Cloudy
72.1 °F
Feels Like 72.1 °F
N
0.0
Wind Variable Wind from South
Gusts 0.0 mph

Today
High -- | Low -- °F
--% Chance of Precip.
Yesterday
High -- | Low -- °F
Precip. -- in
7:11 AM 5:36 PM
First Quarter, 59% visible
Pressure 30.15 in
Visibility 10.0 miles
Clouds Mostly Cloudy 2900 ft
Dew Point 72 °F
Humidity 100%
Rainfall 0.00 in
Snow Depth Not available.
UV 2 out of 12
Pollen 8.00 out of 12
Air Quality Not available.
Flu Activity Not available.
METAR KVRB 291453Z 20004KT 10SM BKN029 24/21 A3015 RMK AO2 SLP210 T02390211 51018

More Conditions Fewer Conditions

Pressure 30.15 in
Visibility 10.0 miles
Clouds Mostly Cloudy 2900 ft
Dew Point 72 °F
Humidity 100%
Rainfall 0.00 in
Snow Depth Not available.
UV 2 out of 12
Pollen 8.00 out of 12
Air Quality Not available.
Flu Activity Not available.
METAR KVRB 291453Z 20004KT 10SM BKN029 24/21 A3015 RMK AO2 SLP210 T02390211 51018

More Conditions Fewer Conditions

Nowcast | as of 8:38 am EST on December 29, 2014

A few showers were moving north and brushing the Treasure Coast early this morning. A slight chance may continue into afternoon from there over to Okeechobee. A warm southwest wind flow today will boost high temperatures into the lower 80s across the area. A few spots may flirt with their record highs. If going to the beach...a high rip current risk continues. Additional details...including graphics are available online at: http://www.Srh.NOAA.Gov/mlb/blog.Php

×

10-Day Weather Forecast

Almanac

Astronomy

Dec. 29, 2014 Rise Set
Actual Time
Civil Twilight
Nautical Twilight
Astronomical Twilight
Moon
Length of Visible Light
Length of Day
Tomorrow will be .
, % of the Moon is Illuminated

Today's Extremes

State Highs State Lows

Community

WunderPhotos

Upload Photos

1,781,598 photos uploaded!

WunderBlogs® & News

Nearby

Air Quality

  Air Quality AQ Index Pollutant
Not available.

Snow Depth

Station Depth Elevation

Earthquake Activity

City Distance Mag. Time & Date
Minimum magnitude displayed is 2.5.

Coastal Water Temperatures

Place Temperature

Nearby Weather Stations